createdAt,value
2022-10-09T03:45:23.436Z,14.48
2022-10-09T03:50:29.799Z,14.20
2022-10-09T04:23:10.155Z,13.95
2022-10-09T04:28:15.713Z,14.68
2022-10-09T04:33:21.039Z,16.30
2022-10-09T04:38:32.159Z,15.45
2022-10-09T04:55:48.257Z,15.38
2022-10-09T05:00:53.413Z,14.57
2022-10-09T06:20:19.722Z,13.48
2022-10-09T06:25:33.519Z,13.60
2022-10-09T06:48:59.358Z,12.55
2022-10-09T06:54:22.828Z,13.07
2022-10-09T07:12:15.658Z,11.90
2022-10-09T07:17:29.832Z,14.07
2022-10-09T07:22:35.908Z,12.55
2022-10-09T07:27:43.560Z,12.68
2022-10-09T07:32:48.710Z,12.93
2022-10-09T07:37:54.787Z,11.98
2022-10-09T07:43:02.492Z,11.52
2022-10-09T07:48:07.837Z,12.88
2022-10-09T07:53:12.926Z,9.93
2022-10-09T07:58:23.543Z,11.40
2022-10-09T08:03:28.664Z,10.30
2022-10-09T08:08:33.801Z,11.32
2022-10-09T08:13:42.222Z,11.27
2022-10-09T08:19:05.465Z,12.05
2022-10-09T08:24:12.801Z,10.50
2022-10-09T08:29:24.977Z,10.00
2022-10-09T08:35:21.833Z,9.85
2022-10-09T08:40:42.336Z,11.82
2022-10-09T08:45:58.375Z,11.68
2022-10-09T08:51:09.492Z,15.63
2022-10-09T08:56:17.888Z,10.07
2022-10-09T10:25:39.747Z,6.50
2022-10-09T10:30:47.968Z,6.80
2022-10-09T10:35:57.257Z,8.00
2022-10-09T10:41:19.485Z,7.13
2022-10-09T10:46:36.638Z,8.05
2022-10-09T10:52:05.791Z,8.55
2022-10-09T10:57:26.379Z,8.68
2022-10-09T11:03:06.916Z,8.50
2022-10-09T11:08:35.159Z,8.77
2022-10-09T11:13:52.599Z,7.97
2022-10-09T11:19:09.167Z,8.95
2022-10-09T11:24:38.189Z,8.75
2022-10-09T11:29:51.521Z,8.20
2022-10-09T11:35:01.595Z,8.00
2022-10-09T11:40:15.822Z,7.72
2022-10-09T11:45:29.534Z,8.07
2022-10-09T11:51:20.859Z,6.78
2022-10-09T12:02:33.637Z,6.53
2022-10-09T12:07:40.461Z,6.32
2022-10-09T12:12:48.552Z,6.35
2022-10-09T12:17:56.623Z,7.60
2022-10-09T12:23:25.183Z,7.50
2022-10-09T12:28:32.729Z,6.70
2022-10-09T12:33:44.966Z,6.22
2022-10-09T12:39:19.659Z,6.47
2022-10-09T12:44:31.586Z,4.50
2022-10-09T12:49:43.703Z,3.60
2022-10-09T12:54:51.577Z,3.53
2022-10-09T13:00:02.943Z,4.20
2022-10-09T13:05:11.248Z,3.33
2022-10-09T13:10:21.304Z,4.18
2022-10-09T13:15:32.952Z,4.60
2022-10-09T13:20:40.843Z,4.57
2022-10-09T13:25:46.507Z,3.17
2022-10-09T13:30:51.862Z,2.90
2022-10-09T13:36:03.418Z,3.33
2022-10-09T13:41:19.345Z,3.75
2022-10-09T13:46:24.522Z,3.90
2022-10-09T13:51:33.747Z,3.72
2022-10-09T13:57:03.438Z,3.15
2022-10-09T14:02:11.506Z,3.60
2022-10-09T14:07:30.425Z,3.38
2022-10-09T14:12:35.703Z,3.60
2022-10-09T14:17:41.060Z,3.10
2022-10-09T14:22:49.701Z,3.42
2022-10-09T14:27:55.192Z,3.03
2022-10-09T14:33:00.540Z,3.65
2022-10-09T14:38:10.772Z,2.88
2022-10-09T14:43:16.157Z,3.03
2022-10-09T14:48:21.530Z,3.85
2022-10-09T14:53:29.352Z,3.85
2022-10-09T14:58:34.532Z,3.78
2022-10-09T15:03:39.891Z,2.90
2022-10-09T15:08:48.338Z,3.20
2022-10-09T15:13:53.492Z,3.15
2022-10-09T15:18:59.428Z,3.97
2022-10-09T15:24:07.969Z,3.22
2022-10-09T15:29:14.067Z,4.55
2022-10-09T15:34:21.216Z,3.67
2022-10-09T15:44:34.076Z,3.90
2022-10-09T15:49:39.364Z,5.22
2022-10-09T15:54:47.368Z,3.92
2022-10-09T15:59:52.621Z,5.35
2022-10-09T16:04:57.667Z,4.38
2022-10-09T16:10:05.464Z,4.20
2022-10-09T16:15:13.809Z,4.75
